sensor_id;sensor_type;location;lat;lon;timestamp;P1;durP1;ratioP1;P2;durP2;ratioP2
39482;SDS011;25682;48.438;1.482;2022-08-01T00:01:39;2.92;;;1.30;;
39482;SDS011;25682;48.438;1.482;2022-08-01T00:04:05;2.30;;;1.27;;
39482;SDS011;25682;48.438;1.482;2022-08-01T00:06:31;2.90;;;1.20;;
39482;SDS011;25682;48.438;1.482;2022-08-01T00:08:56;2.17;;;1.30;;
39482;SDS011;25682;48.438;1.482;2022-08-01T00:11:22;1.70;;;1.48;;
39482;SDS011;25682;48.438;1.482;2022-08-01T00:13:47;2.47;;;1.10;;
39482;SDS011;25682;48.438;1.482;2022-08-01T00:16:13;1.75;;;1.30;;
39482;SDS011;25682;48.438;1.482;2022-08-01T00:18:39;1.30;;;1.10;;
39482;SDS011;25682;48.438;1.482;2022-08-01T00:21:04;2.75;;;1.30;;
39482;SDS011;25682;48.438;1.482;2022-08-01T00:23:30;1.60;;;1.25;;
39482;SDS011;25682;48.438;1.482;2022-08-01T00:25:56;3.38;;;1.23;;
39482;SDS011;25682;48.438;1.482;2022-08-01T00:28:22;1.65;;;1.15;;
39482;SDS011;25682;48.438;1.482;2022-08-01T00:30:47;1.60;;;0.95;;
39482;SDS011;25682;48.438;1.482;2022-08-01T00:33:13;2.17;;;1.25;;
39482;SDS011;25682;48.438;1.482;2022-08-01T00:35:38;1.55;;;1.20;;
39482;SDS011;25682;48.438;1.482;2022-08-01T00:38:04;1.90;;;1.30;;
39482;SDS011;25682;48.438;1.482;2022-08-01T00:40:30;1.77;;;1.00;;
39482;SDS011;25682;48.438;1.482;2022-08-01T00:42:55;1.92;;;1.45;;
39482;SDS011;25682;48.438;1.482;2022-08-01T00:45:21;1.33;;;1.08;;
39482;SDS011;25682;48.438;1.482;2022-08-01T00:47:46;2.28;;;1.20;;
39482;SDS011;25682;48.438;1.482;2022-08-01T00:50:12;2.83;;;1.00;;
39482;SDS011;25682;48.438;1.482;2022-08-01T00:52:39;1.63;;;1.00;;
39482;SDS011;25682;48.438;1.482;2022-08-01T00:55:05;1.58;;;0.85;;
39482;SDS011;25682;48.438;1.482;2022-08-01T00:57:32;4.47;;;1.25;;
39482;SDS011;25682;48.438;1.482;2022-08-01T00:59:58;1.63;;;1.00;;
39482;SDS011;25682;48.438;1.482;2022-08-01T01:02:24;2.58;;;0.90;;
39482;SDS011;25682;48.438;1.482;2022-08-01T01:04:49;2.20;;;1.02;;
39482;SDS011;25682;48.438;1.482;2022-08-01T01:07:24;2.17;;;1.00;;
39482;SDS011;25682;48.438;1.482;2022-08-01T01:10:17;1.63;;;0.98;;
39482;SDS011;25682;48.438;1.482;2022-08-01T01:12:51;3.72;;;1.30;;
39482;SDS011;25682;48.438;1.482;2022-08-01T01:18:06;1.85;;;0.95;;
39482;SDS011;25682;48.438;1.482;2022-08-01T01:20:42;2.15;;;0.93;;
39482;SDS011;25682;48.438;1.482;2022-08-01T01:28:54;4.28;;;1.20;;
39482;SDS011;25682;48.438;1.482;2022-08-01T01:31:27;1.83;;;1.10;;
39482;SDS011;25682;48.438;1.482;2022-08-01T01:33:53;2.35;;;1.00;;
39482;SDS011;25682;48.438;1.482;2022-08-01T01:36:22;1.48;;;1.10;;
39482;SDS011;25682;48.438;1.482;2022-08-01T01:38:51;1.38;;;1.00;;
39482;SDS011;25682;48.438;1.482;2022-08-01T01:41:17;2.05;;;1.00;;
39482;SDS011;25682;48.438;1.482;2022-08-01T01:43:44;1.58;;;0.93;;
39482;SDS011;25682;48.438;1.482;2022-08-01T01:46:12;1.50;;;0.98;;
39482;SDS011;25682;48.438;1.482;2022-08-01T01:48:42;2.53;;;1.17;;
39482;SDS011;25682;48.438;1.482;2022-08-01T01:51:10;2.38;;;1.10;;
39482;SDS011;25682;48.438;1.482;2022-08-01T01:53:38;2.25;;;1.10;;
39482;SDS011;25682;48.438;1.482;2022-08-01T01:56:06;2.13;;;0.90;;
39482;SDS011;25682;48.438;1.482;2022-08-01T01:58:34;1.38;;;0.93;;
39482;SDS011;25682;48.438;1.482;2022-08-01T02:01:04;1.92;;;1.20;;
39482;SDS011;25682;48.438;1.482;2022-08-01T02:03:31;2.53;;;0.90;;
39482;SDS011;25682;48.438;1.482;2022-08-01T02:06:01;2.35;;;1.05;;
39482;SDS011;25682;48.438;1.482;2022-08-01T02:08:28;3.63;;;1.80;;
39482;SDS011;25682;48.438;1.482;2022-08-01T02:10:55;2.45;;;1.17;;
39482;SDS011;25682;48.438;1.482;2022-08-01T02:13:41;1.20;;;1.10;;
39482;SDS011;25682;48.438;1.482;2022-08-01T02:16:08;1.23;;;1.10;;
39482;SDS011;25682;48.438;1.482;2022-08-01T02:18:36;1.00;;;0.90;;
39482;SDS011;25682;48.438;1.482;2022-08-01T02:21:03;1.63;;;1.00;;
39482;SDS011;25682;48.438;1.482;2022-08-01T02:23:32;1.50;;;0.98;;
39482;SDS011;25682;48.438;1.482;2022-08-01T02:26:01;2.40;;;1.50;;
39482;SDS011;25682;48.438;1.482;2022-08-01T02:28:36;2.45;;;1.00;;
39482;SDS011;25682;48.438;1.482;2022-08-01T02:31:09;1.58;;;1.15;;
39482;SDS011;25682;48.438;1.482;2022-08-01T02:33:40;2.53;;;1.10;;
39482;SDS011;25682;48.438;1.482;2022-08-01T02:36:09;2.08;;;1.30;;
39482;SDS011;25682;48.438;1.482;2022-08-01T02:38:37;1.73;;;1.13;;
39482;SDS011;25682;48.438;1.482;2022-08-01T02:41:09;1.55;;;1.13;;
39482;SDS011;25682;48.438;1.482;2022-08-01T02:43:38;1.55;;;1.10;;
39482;SDS011;25682;48.438;1.482;2022-08-01T02:46:08;2.35;;;1.13;;
39482;SDS011;25682;48.438;1.482;2022-08-01T02:48:42;1.67;;;1.00;;
39482;SDS011;25682;48.438;1.482;2022-08-01T02:51:09;1.10;;;1.00;;
39482;SDS011;25682;48.438;1.482;2022-08-01T02:53:36;1.85;;;1.02;;
39482;SDS011;25682;48.438;1.482;2022-08-01T02:56:04;2.92;;;1.10;;
39482;SDS011;25682;48.438;1.482;2022-08-01T02:58:31;2.25;;;0.93;;
39482;SDS011;25682;48.438;1.482;2022-08-01T03:01:00;1.88;;;0.98;;
39482;SDS011;25682;48.438;1.482;2022-08-01T03:03:26;1.48;;;1.10;;
39482;SDS011;25682;48.438;1.482;2022-08-01T03:05:53;1.58;;;1.00;;
39482;SDS011;25682;48.438;1.482;2022-08-01T03:08:19;2.10;;;0.90;;
39482;SDS011;25682;48.438;1.482;2022-08-01T03:10:46;3.08;;;1.35;;
39482;SDS011;25682;48.438;1.482;2022-08-01T03:13:12;1.25;;;1.00;;
39482;SDS011;25682;48.438;1.482;2022-08-01T03:15:40;2.58;;;0.93;;
39482;SDS011;25682;48.438;1.482;2022-08-01T03:18:08;2.33;;;1.20;;
39482;SDS011;25682;48.438;1.482;2022-08-01T03:20:36;1.55;;;1.10;;
39482;SDS011;25682;48.438;1.482;2022-08-01T03:23:03;1.60;;;1.00;;
39482;SDS011;25682;48.438;1.482;2022-08-01T03:25:31;2.55;;;1.08;;
39482;SDS011;25682;48.438;1.482;2022-08-01T03:28:01;3.83;;;1.10;;
39482;SDS011;25682;48.438;1.482;2022-08-01T03:30:29;2.72;;;1.20;;
39482;SDS011;25682;48.438;1.482;2022-08-01T03:32:56;1.27;;;0.90;;
39482;SDS011;25682;48.438;1.482;2022-08-01T03:35:23;1.88;;;1.00;;
39482;SDS011;25682;48.438;1.482;2022-08-01T03:37:53;2.67;;;1.20;;
39482;SDS011;25682;48.438;1.482;2022-08-01T03:45:49;1.40;;;1.00;;
39482;SDS011;25682;48.438;1.482;2022-08-01T03:48:17;2.85;;;1.17;;
39482;SDS011;25682;48.438;1.482;2022-08-01T03:50:46;1.42;;;1.00;;
39482;SDS011;25682;48.438;1.482;2022-08-01T03:53:13;1.67;;;0.98;;
39482;SDS011;25682;48.438;1.482;2022-08-01T03:55:41;1.05;;;0.98;;
39482;SDS011;25682;48.438;1.482;2022-08-01T03:58:08;2.35;;;0.95;;
39482;SDS011;25682;48.438;1.482;2022-08-01T04:00:36;2.58;;;1.05;;
39482;SDS011;25682;48.438;1.482;2022-08-01T04:03:04;3.38;;;0.90;;
39482;SDS011;25682;48.438;1.482;2022-08-01T04:05:31;1.95;;;1.30;;
39482;SDS011;25682;48.438;1.482;2022-08-01T04:07:57;3.08;;;1.45;;
39482;SDS011;25682;48.438;1.482;2022-08-01T04:10:24;2.10;;;0.95;;
39482;SDS011;25682;48.438;1.482;2022-08-01T04:12:51;3.90;;;1.25;;
39482;SDS011;25682;48.438;1.482;2022-08-01T04:15:17;2.55;;;1.15;;
39482;SDS011;25682;48.438;1.482;2022-08-01T04:17:42;1.85;;;0.80;;
39482;SDS011;25682;48.438;1.482;2022-08-01T04:20:08;1.92;;;1.17;;
39482;SDS011;25682;48.438;1.482;2022-08-01T04:22:36;1.33;;;1.02;;
39482;SDS011;25682;48.438;1.482;2022-08-01T04:25:02;2.60;;;1.13;;
39482;SDS011;25682;48.438;1.482;2022-08-01T04:27:35;2.78;;;1.08;;
39482;SDS011;25682;48.438;1.482;2022-08-01T04:30:03;1.73;;;1.20;;
39482;SDS011;25682;48.438;1.482;2022-08-01T04:32:31;1.42;;;0.80;;
39482;SDS011;25682;48.438;1.482;2022-08-01T04:35:01;1.50;;;1.10;;
39482;SDS011;25682;48.438;1.482;2022-08-01T04:37:30;1.85;;;0.95;;
39482;SDS011;25682;48.438;1.482;2022-08-01T04:39:56;2.70;;;1.17;;
39482;SDS011;25682;48.438;1.482;2022-08-01T04:42:23;2.33;;;1.15;;
39482;SDS011;25682;48.438;1.482;2022-08-01T04:44:50;1.77;;;1.05;;
39482;SDS011;25682;48.438;1.482;2022-08-01T04:47:16;1.33;;;1.00;;
39482;SDS011;25682;48.438;1.482;2022-08-01T04:49:42;1.45;;;1.17;;
39482;SDS011;25682;48.438;1.482;2022-08-01T04:52:08;1.88;;;1.23;;
39482;SDS011;25682;48.438;1.482;2022-08-01T04:54:35;2.03;;;1.10;;
39482;SDS011;25682;48.438;1.482;2022-08-01T04:57:04;1.88;;;0.90;;
39482;SDS011;25682;48.438;1.482;2022-08-01T04:59:31;1.88;;;1.20;;
39482;SDS011;25682;48.438;1.482;2022-08-01T05:02:07;1.95;;;1.10;;
39482;SDS011;25682;48.438;1.482;2022-08-01T05:04:34;1.45;;;0.80;;
39482;SDS011;25682;48.438;1.482;2022-08-01T05:07:00;1.10;;;1.00;;
39482;SDS011;25682;48.438;1.482;2022-08-01T05:09:26;3.35;;;1.00;;
39482;SDS011;25682;48.438;1.482;2022-08-01T05:11:52;2.45;;;1.10;;
39482;SDS011;25682;48.438;1.482;2022-08-01T05:14:18;1.58;;;1.00;;
39482;SDS011;25682;48.438;1.482;2022-08-01T05:16:44;2.90;;;1.15;;
39482;SDS011;25682;48.438;1.482;2022-08-01T05:19:10;1.83;;;1.10;;
39482;SDS011;25682;48.438;1.482;2022-08-01T05:21:37;2.97;;;1.80;;
39482;SDS011;25682;48.438;1.482;2022-08-01T05:24:03;2.40;;;1.45;;
39482;SDS011;25682;48.438;1.482;2022-08-01T05:26:30;1.42;;;0.93;;
39482;SDS011;25682;48.438;1.482;2022-08-01T05:28:56;2.92;;;1.30;;
39482;SDS011;25682;48.438;1.482;2022-08-01T05:31:21;1.33;;;1.00;;
39482;SDS011;25682;48.438;1.482;2022-08-01T05:33:47;1.63;;;0.98;;
39482;SDS011;25682;48.438;1.482;2022-08-01T05:36:12;3.10;;;1.05;;
39482;SDS011;25682;48.438;1.482;2022-08-01T05:38:38;2.95;;;1.15;;
39482;SDS011;25682;48.438;1.482;2022-08-01T05:41:04;2.13;;;1.20;;
39482;SDS011;25682;48.438;1.482;2022-08-01T05:43:30;2.58;;;1.20;;
39482;SDS011;25682;48.438;1.482;2022-08-01T05:45:55;1.63;;;1.13;;
39482;SDS011;25682;48.438;1.482;2022-08-01T05:48:21;1.77;;;1.00;;
39482;SDS011;25682;48.438;1.482;2022-08-01T05:50:46;1.92;;;0.90;;
39482;SDS011;25682;48.438;1.482;2022-08-01T05:53:12;1.60;;;0.98;;
39482;SDS011;25682;48.438;1.482;2022-08-01T05:55:38;1.75;;;1.10;;
39482;SDS011;25682;48.438;1.482;2022-08-01T05:58:04;1.90;;;0.90;;
39482;SDS011;25682;48.438;1.482;2022-08-01T06:00:30;1.50;;;1.00;;
39482;SDS011;25682;48.438;1.482;2022-08-01T06:02:56;1.75;;;1.00;;
39482;SDS011;25682;48.438;1.482;2022-08-01T06:05:21;1.15;;;0.80;;
39482;SDS011;25682;48.438;1.482;2022-08-01T06:07:47;1.67;;;1.20;;
39482;SDS011;25682;48.438;1.482;2022-08-01T06:10:13;2.30;;;1.10;;
39482;SDS011;25682;48.438;1.482;2022-08-01T06:12:38;2.13;;;0.90;;
39482;SDS011;25682;48.438;1.482;2022-08-01T06:15:04;2.67;;;1.00;;
39482;SDS011;25682;48.438;1.482;2022-08-01T06:17:31;3.35;;;0.85;;
39482;SDS011;25682;48.438;1.482;2022-08-01T06:19:57;2.78;;;0.95;;
39482;SDS011;25682;48.438;1.482;2022-08-01T06:22:22;5.70;;;1.98;;
39482;SDS011;25682;48.438;1.482;2022-08-01T06:24:48;4.63;;;1.05;;
39482;SDS011;25682;48.438;1.482;2022-08-01T06:27:13;3.30;;;0.98;;
39482;SDS011;25682;48.438;1.482;2022-08-01T06:29:39;4.65;;;0.98;;
39482;SDS011;25682;48.438;1.482;2022-08-01T06:32:05;6.10;;;1.25;;
39482;SDS011;25682;48.438;1.482;2022-08-01T06:34:31;11.25;;;1.35;;
39482;SDS011;25682;48.438;1.482;2022-08-01T06:36:57;4.38;;;2.08;;
39482;SDS011;25682;48.438;1.482;2022-08-01T06:39:22;16.98;;;1.67;;
39482;SDS011;25682;48.438;1.482;2022-08-01T06:41:48;4.10;;;1.23;;
39482;SDS011;25682;48.438;1.482;2022-08-01T06:44:13;3.75;;;1.35;;
39482;SDS011;25682;48.438;1.482;2022-08-01T06:46:39;2.80;;;1.42;;
39482;SDS011;25682;48.438;1.482;2022-08-01T06:49:05;1.38;;;1.02;;
39482;SDS011;25682;48.438;1.482;2022-08-01T06:51:30;3.90;;;1.40;;
39482;SDS011;25682;48.438;1.482;2022-08-01T06:53:56;5.63;;;1.40;;
39482;SDS011;25682;48.438;1.482;2022-08-01T06:56:22;4.65;;;1.30;;
39482;SDS011;25682;48.438;1.482;2022-08-01T06:58:48;3.22;;;1.30;;
39482;SDS011;25682;48.438;1.482;2022-08-01T07:01:14;3.80;;;1.67;;
39482;SDS011;25682;48.438;1.482;2022-08-01T07:03:40;3.03;;;1.58;;
39482;SDS011;25682;48.438;1.482;2022-08-01T07:06:06;3.47;;;2.03;;
39482;SDS011;25682;48.438;1.482;2022-08-01T07:08:32;2.97;;;1.67;;
39482;SDS011;25682;48.438;1.482;2022-08-01T07:10:58;3.22;;;1.98;;
39482;SDS011;25682;48.438;1.482;2022-08-01T07:13:27;11.82;;;1.77;;
39482;SDS011;25682;48.438;1.482;2022-08-01T07:15:55;6.50;;;1.80;;
39482;SDS011;25682;48.438;1.482;2022-08-01T07:18:21;3.78;;;1.63;;
39482;SDS011;25682;48.438;1.482;2022-08-01T07:20:47;4.57;;;1.50;;
39482;SDS011;25682;48.438;1.482;2022-08-01T07:23:13;6.72;;;1.58;;
39482;SDS011;25682;48.438;1.482;2022-08-01T07:25:39;5.63;;;1.50;;
39482;SDS011;25682;48.438;1.482;2022-08-01T07:28:05;2.85;;;1.50;;
39482;SDS011;25682;48.438;1.482;2022-08-01T07:30:34;5.32;;;1.50;;
39482;SDS011;25682;48.438;1.482;2022-08-01T07:33:00;5.82;;;1.63;;
39482;SDS011;25682;48.438;1.482;2022-08-01T07:35:26;8.23;;;2.00;;
39482;SDS011;25682;48.438;1.482;2022-08-01T07:37:52;2.40;;;1.02;;
39482;SDS011;25682;48.438;1.482;2022-08-01T07:40:18;1.23;;;1.00;;
39482;SDS011;25682;48.438;1.482;2022-08-01T07:42:44;4.53;;;1.05;;
39482;SDS011;25682;48.438;1.482;2022-08-01T07:45:10;4.78;;;1.77;;
39482;SDS011;25682;48.438;1.482;2022-08-01T07:47:37;2.22;;;1.48;;
39482;SDS011;25682;48.438;1.482;2022-08-01T07:50:03;2.70;;;1.90;;
39482;SDS011;25682;48.438;1.482;2022-08-01T07:52:29;2.45;;;1.60;;
39482;SDS011;25682;48.438;1.482;2022-08-01T07:54:55;5.90;;;1.58;;
39482;SDS011;25682;48.438;1.482;2022-08-01T07:57:22;5.78;;;1.50;;
39482;SDS011;25682;48.438;1.482;2022-08-01T07:59:48;3.90;;;1.45;;
39482;SDS011;25682;48.438;1.482;2022-08-01T08:02:14;2.00;;;1.30;;
39482;SDS011;25682;48.438;1.482;2022-08-01T08:04:40;2.30;;;1.40;;
39482;SDS011;25682;48.438;1.482;2022-08-01T08:07:06;2.15;;;1.50;;
39482;SDS011;25682;48.438;1.482;2022-08-01T08:09:32;14.63;;;2.40;;
39482;SDS011;25682;48.438;1.482;2022-08-01T08:11:57;6.70;;;1.75;;
39482;SDS011;25682;48.438;1.482;2022-08-01T08:14:23;9.85;;;1.67;;
39482;SDS011;25682;48.438;1.482;2022-08-01T08:16:49;6.53;;;1.65;;
39482;SDS011;25682;48.438;1.482;2022-08-01T08:19:16;8.93;;;1.92;;
39482;SDS011;25682;48.438;1.482;2022-08-01T08:21:41;7.15;;;1.60;;
39482;SDS011;25682;48.438;1.482;2022-08-01T08:24:08;5.60;;;1.42;;
39482;SDS011;25682;48.438;1.482;2022-08-01T08:26:56;3.22;;;1.33;;
39482;SDS011;25682;48.438;1.482;2022-08-01T08:29:23;13.90;;;1.20;;
39482;SDS011;25682;48.438;1.482;2022-08-01T08:31:50;9.05;;;1.40;;
39482;SDS011;25682;48.438;1.482;2022-08-01T08:34:17;5.47;;;1.65;;
39482;SDS011;25682;48.438;1.482;2022-08-01T08:36:43;8.48;;;1.27;;
39482;SDS011;25682;48.438;1.482;2022-08-01T08:39:09;3.72;;;1.27;;
39482;SDS011;25682;48.438;1.482;2022-08-01T08:41:34;4.00;;;1.27;;
39482;SDS011;25682;48.438;1.482;2022-08-01T08:44:01;2.38;;;0.88;;
39482;SDS011;25682;48.438;1.482;2022-08-01T08:46:31;2.17;;;1.10;;
39482;SDS011;25682;48.438;1.482;2022-08-01T08:48:58;7.55;;;1.50;;
39482;SDS011;25682;48.438;1.482;2022-08-01T08:51:28;2.60;;;1.10;;
39482;SDS011;25682;48.438;1.482;2022-08-01T08:53:56;4.25;;;1.00;;
39482;SDS011;25682;48.438;1.482;2022-08-01T08:56:23;3.58;;;1.08;;
39482;SDS011;25682;48.438;1.482;2022-08-01T08:58:50;6.50;;;1.40;;
39482;SDS011;25682;48.438;1.482;2022-08-01T09:01:16;2.17;;;1.35;;
39482;SDS011;25682;48.438;1.482;2022-08-01T09:03:43;2.40;;;1.15;;
39482;SDS011;25682;48.438;1.482;2022-08-01T09:06:09;1.33;;;0.90;;
39482;SDS011;25682;48.438;1.482;2022-08-01T09:08:35;2.75;;;1.00;;
39482;SDS011;25682;48.438;1.482;2022-08-01T09:11:01;2.22;;;0.90;;
39482;SDS011;25682;48.438;1.482;2022-08-01T09:13:28;2.42;;;1.10;;
39482;SDS011;25682;48.438;1.482;2022-08-01T09:15:54;1.70;;;1.00;;
39482;SDS011;25682;48.438;1.482;2022-08-01T09:18:29;1.30;;;1.00;;
39482;SDS011;25682;48.438;1.482;2022-08-01T09:21:09;1.85;;;0.82;;
39482;SDS011;25682;48.438;1.482;2022-08-01T09:26:11;1.25;;;0.90;;
39482;SDS011;25682;48.438;1.482;2022-08-01T09:28:39;0.90;;;0.90;;
39482;SDS011;25682;48.438;1.482;2022-08-01T09:31:05;2.47;;;1.13;;
39482;SDS011;25682;48.438;1.482;2022-08-01T09:36:26;4.00;;;1.42;;
39482;SDS011;25682;48.438;1.482;2022-08-01T09:39:12;3.50;;;0.90;;
39482;SDS011;25682;48.438;1.482;2022-08-01T09:41:38;1.60;;;0.82;;
39482;SDS011;25682;48.438;1.482;2022-08-01T09:44:04;3.60;;;1.23;;
39482;SDS011;25682;48.438;1.482;2022-08-01T09:46:30;2.38;;;0.90;;
39482;SDS011;25682;48.438;1.482;2022-08-01T09:48:57;1.40;;;0.93;;
39482;SDS011;25682;48.438;1.482;2022-08-01T09:51:28;2.22;;;1.00;;
39482;SDS011;25682;48.438;1.482;2022-08-01T09:53:55;1.00;;;0.80;;
39482;SDS011;25682;48.438;1.482;2022-08-01T09:56:21;2.13;;;1.00;;
39482;SDS011;25682;48.438;1.482;2022-08-01T09:58:51;1.13;;;0.82;;
39482;SDS011;25682;48.438;1.482;2022-08-01T10:01:20;1.15;;;0.80;;
39482;SDS011;25682;48.438;1.482;2022-08-01T10:03:47;1.30;;;0.70;;
39482;SDS011;25682;48.438;1.482;2022-08-01T10:06:39;2.15;;;1.27;;
39482;SDS011;25682;48.438;1.482;2022-08-01T10:09:10;1.20;;;0.85;;
39482;SDS011;25682;48.438;1.482;2022-08-01T10:11:37;1.70;;;1.10;;
39482;SDS011;25682;48.438;1.482;2022-08-01T10:14:06;4.07;;;0.80;;
39482;SDS011;25682;48.438;1.482;2022-08-01T10:16:33;3.17;;;1.05;;
39482;SDS011;25682;48.438;1.482;2022-08-01T10:19:01;1.42;;;0.90;;
39482;SDS011;25682;48.438;1.482;2022-08-01T10:21:30;1.38;;;0.95;;
39482;SDS011;25682;48.438;1.482;2022-08-01T10:23:58;1.80;;;0.85;;
39482;SDS011;25682;48.438;1.482;2022-08-01T10:26:25;6.25;;;1.13;;
39482;SDS011;25682;48.438;1.482;2022-08-01T10:28:54;1.70;;;1.10;;
39482;SDS011;25682;48.438;1.482;2022-08-01T10:31:20;13.73;;;1.67;;
39482;SDS011;25682;48.438;1.482;2022-08-01T10:33:46;2.33;;;1.08;;
39482;SDS011;25682;48.438;1.482;2022-08-01T10:36:12;7.93;;;1.52;;
39482;SDS011;25682;48.438;1.482;2022-08-01T10:38:38;4.53;;;1.40;;
39482;SDS011;25682;48.438;1.482;2022-08-01T10:41:05;3.08;;;2.47;;
39482;SDS011;25682;48.438;1.482;2022-08-01T10:43:31;3.00;;;1.80;;
39482;SDS011;25682;48.438;1.482;2022-08-01T10:45:56;4.47;;;1.92;;
39482;SDS011;25682;48.438;1.482;2022-08-01T10:48:31;3.83;;;1.60;;
39482;SDS011;25682;48.438;1.482;2022-08-01T10:51:21;2.72;;;1.85;;
39482;SDS011;25682;48.438;1.482;2022-08-01T10:53:52;4.45;;;1.63;;
39482;SDS011;25682;48.438;1.482;2022-08-01T10:56:18;3.22;;;1.73;;
39482;SDS011;25682;48.438;1.482;2022-08-01T10:58:46;2.63;;;1.40;;
39482;SDS011;25682;48.438;1.482;2022-08-01T11:03:44;4.20;;;1.50;;
39482;SDS011;25682;48.438;1.482;2022-08-01T11:06:20;2.25;;;1.60;;
39482;SDS011;25682;48.438;1.482;2022-08-01T11:09:04;3.63;;;1.70;;
39482;SDS011;25682;48.438;1.482;2022-08-01T11:14:23;2.90;;;1.45;;
39482;SDS011;25682;48.438;1.482;2022-08-01T11:16:48;4.75;;;1.60;;
39482;SDS011;25682;48.438;1.482;2022-08-01T11:19:14;2.85;;;1.58;;
39482;SDS011;25682;48.438;1.482;2022-08-01T11:32:44;3.85;;;1.30;;
39482;SDS011;25682;48.438;1.482;2022-08-01T11:35:15;1.50;;;1.10;;
39482;SDS011;25682;48.438;1.482;2022-08-01T11:37:41;1.65;;;1.50;;
39482;SDS011;25682;48.438;1.482;2022-08-01T11:40:17;2.45;;;1.30;;
39482;SDS011;25682;48.438;1.482;2022-08-01T11:42:48;2.05;;;0.90;;
39482;SDS011;25682;48.438;1.482;2022-08-01T11:45:14;2.17;;;1.00;;
39482;SDS011;25682;48.438;1.482;2022-08-01T11:47:50;3.13;;;1.10;;
39482;SDS011;25682;48.438;1.482;2022-08-01T11:53:03;5.05;;;1.30;;
39482;SDS011;25682;48.438;1.482;2022-08-01T11:55:30;10.10;;;1.77;;
39482;SDS011;25682;48.438;1.482;2022-08-01T11:58:03;1.98;;;1.00;;
39482;SDS011;25682;48.438;1.482;2022-08-01T12:00:30;2.65;;;1.30;;
39482;SDS011;25682;48.438;1.482;2022-08-01T12:03:02;3.53;;;1.20;;
39482;SDS011;25682;48.438;1.482;2022-08-01T12:05:30;3.90;;;1.10;;
39482;SDS011;25682;48.438;1.482;2022-08-01T12:07:58;2.45;;;1.38;;
39482;SDS011;25682;48.438;1.482;2022-08-01T12:10:28;3.30;;;1.27;;
39482;SDS011;25682;48.438;1.482;2022-08-01T12:13:01;7.57;;;1.63;;
39482;SDS011;25682;48.438;1.482;2022-08-01T12:15:33;16.13;;;1.42;;
39482;SDS011;25682;48.438;1.482;2022-08-01T12:18:00;8.05;;;1.42;;
39482;SDS011;25682;48.438;1.482;2022-08-01T12:20:28;1.80;;;1.05;;
39482;SDS011;25682;48.438;1.482;2022-08-01T12:23:03;12.65;;;1.25;;
39482;SDS011;25682;48.438;1.482;2022-08-01T12:27:59;5.93;;;1.13;;
39482;SDS011;25682;48.438;1.482;2022-08-01T12:30:32;3.53;;;1.40;;
39482;SDS011;25682;48.438;1.482;2022-08-01T12:33:03;5.50;;;1.40;;
39482;SDS011;25682;48.438;1.482;2022-08-01T12:35:30;9.23;;;1.40;;
39482;SDS011;25682;48.438;1.482;2022-08-01T12:38:03;2.83;;;0.98;;
39482;SDS011;25682;48.438;1.482;2022-08-01T12:40:32;3.83;;;1.45;;
39482;SDS011;25682;48.438;1.482;2022-08-01T12:43:00;1.75;;;0.80;;
39482;SDS011;25682;48.438;1.482;2022-08-01T12:48:13;30.20;;;2.65;;
39482;SDS011;25682;48.438;1.482;2022-08-01T12:50:41;24.30;;;2.38;;
39482;SDS011;25682;48.438;1.482;2022-08-01T12:53:08;23.15;;;2.28;;
39482;SDS011;25682;48.438;1.482;2022-08-01T12:55:43;8.73;;;2.03;;
39482;SDS011;25682;48.438;1.482;2022-08-01T12:58:10;9.23;;;1.98;;
39482;SDS011;25682;48.438;1.482;2022-08-01T13:00:38;13.82;;;2.00;;
39482;SDS011;25682;48.438;1.482;2022-08-01T13:03:08;11.80;;;1.55;;
39482;SDS011;25682;48.438;1.482;2022-08-01T13:05:48;8.68;;;1.40;;
39482;SDS011;25682;48.438;1.482;2022-08-01T13:08:16;5.95;;;1.83;;
39482;SDS011;25682;48.438;1.482;2022-08-01T13:10:44;9.63;;;1.52;;
39482;SDS011;25682;48.438;1.482;2022-08-01T13:13:10;4.90;;;1.27;;
39482;SDS011;25682;48.438;1.482;2022-08-01T13:15:37;11.07;;;1.42;;
39482;SDS011;25682;48.438;1.482;2022-08-01T13:24:05;2.53;;;1.15;;
39482;SDS011;25682;48.438;1.482;2022-08-01T13:26:43;6.97;;;1.30;;
39482;SDS011;25682;48.438;1.482;2022-08-01T13:31:42;8.18;;;3.22;;
39482;SDS011;25682;48.438;1.482;2022-08-01T13:34:08;9.02;;;2.40;;
39482;SDS011;25682;48.438;1.482;2022-08-01T13:36:34;12.80;;;2.50;;
39482;SDS011;25682;48.438;1.482;2022-08-01T13:39:05;8.25;;;2.13;;
39482;SDS011;25682;48.438;1.482;2022-08-01T13:41:49;8.38;;;1.80;;
39482;SDS011;25682;48.438;1.482;2022-08-01T13:44:16;3.83;;;1.40;;
39482;SDS011;25682;48.438;1.482;2022-08-01T13:46:42;1.63;;;0.85;;
39482;SDS011;25682;48.438;1.482;2022-08-01T13:49:09;3.90;;;1.23;;
39482;SDS011;25682;48.438;1.482;2022-08-01T13:51:35;3.33;;;1.20;;
39482;SDS011;25682;48.438;1.482;2022-08-01T13:54:02;3.47;;;1.30;;
39482;SDS011;25682;48.438;1.482;2022-08-01T13:56:28;15.10;;;1.90;;
39482;SDS011;25682;48.438;1.482;2022-08-01T13:58:54;15.75;;;1.90;;
39482;SDS011;25682;48.438;1.482;2022-08-01T14:01:20;12.35;;;1.73;;
39482;SDS011;25682;48.438;1.482;2022-08-01T14:03:46;12.90;;;1.50;;
39482;SDS011;25682;48.438;1.482;2022-08-01T14:06:12;17.80;;;1.95;;
39482;SDS011;25682;48.438;1.482;2022-08-01T14:08:40;12.52;;;1.70;;
39482;SDS011;25682;48.438;1.482;2022-08-01T14:11:07;13.10;;;1.85;;
39482;SDS011;25682;48.438;1.482;2022-08-01T14:13:33;13.30;;;1.50;;
39482;SDS011;25682;48.438;1.482;2022-08-01T14:15:59;11.65;;;1.60;;
39482;SDS011;25682;48.438;1.482;2022-08-01T14:18:25;17.90;;;2.17;;
39482;SDS011;25682;48.438;1.482;2022-08-01T14:20:51;7.07;;;1.75;;
39482;SDS011;25682;48.438;1.482;2022-08-01T14:23:16;12.80;;;1.60;;
39482;SDS011;25682;48.438;1.482;2022-08-01T14:25:42;13.07;;;1.80;;
39482;SDS011;25682;48.438;1.482;2022-08-01T14:28:08;7.65;;;1.80;;
39482;SDS011;25682;48.438;1.482;2022-08-01T14:30:35;10.23;;;1.30;;
39482;SDS011;25682;48.438;1.482;2022-08-01T14:33:01;11.60;;;1.60;;
39482;SDS011;25682;48.438;1.482;2022-08-01T14:35:26;3.22;;;1.40;;
39482;SDS011;25682;48.438;1.482;2022-08-01T14:37:52;7.45;;;1.50;;
39482;SDS011;25682;48.438;1.482;2022-08-01T14:40:18;2.20;;;1.10;;
39482;SDS011;25682;48.438;1.482;2022-08-01T14:42:44;8.75;;;1.70;;
39482;SDS011;25682;48.438;1.482;2022-08-01T14:45:10;11.45;;;1.48;;
39482;SDS011;25682;48.438;1.482;2022-08-01T14:47:37;7.35;;;2.25;;
39482;SDS011;25682;48.438;1.482;2022-08-01T14:50:04;25.02;;;2.28;;
39482;SDS011;25682;48.438;1.482;2022-08-01T14:52:32;10.82;;;2.00;;
39482;SDS011;25682;48.438;1.482;2022-08-01T14:54:58;5.45;;;1.30;;
39482;SDS011;25682;48.438;1.482;2022-08-01T14:57:24;4.10;;;1.33;;
39482;SDS011;25682;48.438;1.482;2022-08-01T14:59:49;5.25;;;1.48;;
39482;SDS011;25682;48.438;1.482;2022-08-01T15:02:15;4.40;;;1.20;;
39482;SDS011;25682;48.438;1.482;2022-08-01T15:04:42;5.18;;;1.40;;
39482;SDS011;25682;48.438;1.482;2022-08-01T15:07:09;9.90;;;1.70;;
39482;SDS011;25682;48.438;1.482;2022-08-01T15:09:35;2.90;;;1.13;;
39482;SDS011;25682;48.438;1.482;2022-08-01T15:12:01;2.42;;;1.13;;
39482;SDS011;25682;48.438;1.482;2022-08-01T15:14:26;5.15;;;1.42;;
39482;SDS011;25682;48.438;1.482;2022-08-01T15:17:11;1.38;;;1.00;;
39482;SDS011;25682;48.438;1.482;2022-08-01T15:19:36;2.50;;;1.20;;
39482;SDS011;25682;48.438;1.482;2022-08-01T15:22:02;11.88;;;1.67;;
39482;SDS011;25682;48.438;1.482;2022-08-01T15:24:28;2.17;;;1.17;;
39482;SDS011;25682;48.438;1.482;2022-08-01T15:26:54;6.03;;;1.65;;
39482;SDS011;25682;48.438;1.482;2022-08-01T15:29:20;5.75;;;1.48;;
39482;SDS011;25682;48.438;1.482;2022-08-01T15:31:45;5.15;;;1.38;;
39482;SDS011;25682;48.438;1.482;2022-08-01T15:34:11;4.25;;;1.17;;
39482;SDS011;25682;48.438;1.482;2022-08-01T15:36:36;7.15;;;1.20;;
39482;SDS011;25682;48.438;1.482;2022-08-01T15:39:02;8.48;;;1.38;;
39482;SDS011;25682;48.438;1.482;2022-08-01T15:41:28;5.38;;;1.45;;